sensor_id;sensor_type;location;lat;lon;timestamp;P1;durP1;ratioP1;P2;durP2;ratioP2
49678;SDS011;35570;48.218;16.326;2023-02-28T00:00:33;13.43;;;7.63;;
49678;SDS011;35570;48.218;16.326;2023-02-28T00:03:00;12.40;;;7.70;;
49678;SDS011;35570;48.218;16.326;2023-02-28T00:05:27;14.70;;;7.95;;
49678;SDS011;35570;48.218;16.326;2023-02-28T00:07:54;13.70;;;8.32;;
49678;SDS011;35570;48.218;16.326;2023-02-28T00:10:22;14.77;;;8.07;;
49678;SDS011;35570;48.218;16.326;2023-02-28T00:12:50;15.18;;;8.43;;
49678;SDS011;35570;48.218;16.326;2023-02-28T00:15:16;11.30;;;7.68;;
49678;SDS011;35570;48.218;16.326;2023-02-28T00:17:43;11.63;;;8.10;;
49678;SDS011;35570;48.218;16.326;2023-02-28T00:20:10;12.15;;;7.80;;
49678;SDS011;35570;48.218;16.326;2023-02-28T00:22:46;13.35;;;8.38;;
49678;SDS011;35570;48.218;16.326;2023-02-28T00:25:16;11.38;;;7.57;;
49678;SDS011;35570;48.218;16.326;2023-02-28T00:27:44;15.60;;;8.35;;
49678;SDS011;35570;48.218;16.326;2023-02-28T00:30:12;12.85;;;8.13;;
49678;SDS011;35570;48.218;16.326;2023-02-28T00:32:39;12.98;;;8.68;;
49678;SDS011;35570;48.218;16.326;2023-02-28T00:35:06;11.35;;;8.30;;
49678;SDS011;35570;48.218;16.326;2023-02-28T00:37:32;13.68;;;7.32;;
49678;SDS011;35570;48.218;16.326;2023-02-28T00:39:58;11.98;;;8.02;;
49678;SDS011;35570;48.218;16.326;2023-02-28T00:42:24;11.40;;;8.15;;
49678;SDS011;35570;48.218;16.326;2023-02-28T00:44:52;12.88;;;8.60;;
49678;SDS011;35570;48.218;16.326;2023-02-28T00:47:18;13.75;;;8.90;;
49678;SDS011;35570;48.218;16.326;2023-02-28T00:49:43;12.23;;;8.35;;
49678;SDS011;35570;48.218;16.326;2023-02-28T00:52:09;13.10;;;8.70;;
49678;SDS011;35570;48.218;16.326;2023-02-28T00:54:35;13.98;;;8.68;;
49678;SDS011;35570;48.218;16.326;2023-02-28T00:57:01;14.48;;;8.82;;
49678;SDS011;35570;48.218;16.326;2023-02-28T00:59:27;13.50;;;8.77;;
49678;SDS011;35570;48.218;16.326;2023-02-28T01:01:53;12.88;;;8.10;;
49678;SDS011;35570;48.218;16.326;2023-02-28T01:04:19;13.60;;;8.75;;
49678;SDS011;35570;48.218;16.326;2023-02-28T01:06:45;12.60;;;8.95;;
49678;SDS011;35570;48.218;16.326;2023-02-28T01:09:11;13.73;;;8.70;;
49678;SDS011;35570;48.218;16.326;2023-02-28T01:11:37;14.50;;;8.70;;
49678;SDS011;35570;48.218;16.326;2023-02-28T01:14:04;12.77;;;8.18;;
49678;SDS011;35570;48.218;16.326;2023-02-28T01:16:30;11.90;;;7.80;;
49678;SDS011;35570;48.218;16.326;2023-02-28T01:18:59;13.35;;;8.18;;
49678;SDS011;35570;48.218;16.326;2023-02-28T01:21:24;13.02;;;8.23;;
49678;SDS011;35570;48.218;16.326;2023-02-28T01:23:50;12.18;;;7.82;;
49678;SDS011;35570;48.218;16.326;2023-02-28T01:26:17;12.38;;;8.32;;
49678;SDS011;35570;48.218;16.326;2023-02-28T01:28:46;12.68;;;8.98;;
49678;SDS011;35570;48.218;16.326;2023-02-28T01:31:13;11.48;;;8.07;;
49678;SDS011;35570;48.218;16.326;2023-02-28T01:33:39;13.15;;;9.07;;
49678;SDS011;35570;48.218;16.326;2023-02-28T01:36:06;14.45;;;9.30;;
49678;SDS011;35570;48.218;16.326;2023-02-28T01:38:35;13.85;;;9.05;;
49678;SDS011;35570;48.218;16.326;2023-02-28T01:41:01;13.95;;;8.30;;
49678;SDS011;35570;48.218;16.326;2023-02-28T01:43:28;14.60;;;9.00;;
49678;SDS011;35570;48.218;16.326;2023-02-28T01:45:57;15.23;;;7.75;;
49678;SDS011;35570;48.218;16.326;2023-02-28T01:48:34;13.10;;;8.75;;
49678;SDS011;35570;48.218;16.326;2023-02-28T01:51:05;15.00;;;9.25;;
49678;SDS011;35570;48.218;16.326;2023-02-28T01:53:53;12.18;;;9.38;;
49678;SDS011;35570;48.218;16.326;2023-02-28T01:56:24;12.27;;;8.65;;
49678;SDS011;35570;48.218;16.326;2023-02-28T01:58:54;13.60;;;8.77;;
49678;SDS011;35570;48.218;16.326;2023-02-28T02:01:21;14.50;;;9.50;;
49678;SDS011;35570;48.218;16.326;2023-02-28T02:03:51;15.93;;;9.38;;
49678;SDS011;35570;48.218;16.326;2023-02-28T02:06:22;14.63;;;9.15;;
49678;SDS011;35570;48.218;16.326;2023-02-28T02:08:54;14.27;;;9.93;;
49678;SDS011;35570;48.218;16.326;2023-02-28T02:11:20;12.80;;;9.30;;
49678;SDS011;35570;48.218;16.326;2023-02-28T02:32:47;21.08;;;10.98;;
49678;SDS011;35570;48.218;16.326;2023-02-28T02:38:42;16.58;;;11.50;;
49678;SDS011;35570;48.218;16.326;2023-02-28T02:41:25;17.73;;;10.45;;
49678;SDS011;35570;48.218;16.326;2023-02-28T02:46:52;15.93;;;9.50;;
49678;SDS011;35570;48.218;16.326;2023-02-28T02:49:28;15.93;;;10.65;;
49678;SDS011;35570;48.218;16.326;2023-02-28T02:54:30;15.27;;;9.98;;
49678;SDS011;35570;48.218;16.326;2023-02-28T02:57:03;15.55;;;10.05;;
49678;SDS011;35570;48.218;16.326;2023-02-28T02:59:33;17.40;;;10.98;;
49678;SDS011;35570;48.218;16.326;2023-02-28T03:02:02;15.73;;;11.18;;
49678;SDS011;35570;48.218;16.326;2023-02-28T03:04:31;16.40;;;10.93;;
49678;SDS011;35570;48.218;16.326;2023-02-28T03:07:03;16.27;;;10.52;;
49678;SDS011;35570;48.218;16.326;2023-02-28T03:09:28;17.15;;;10.48;;
49678;SDS011;35570;48.218;16.326;2023-02-28T03:11:57;13.75;;;10.00;;
49678;SDS011;35570;48.218;16.326;2023-02-28T03:27:39;15.75;;;10.30;;
49678;SDS011;35570;48.218;16.326;2023-02-28T03:30:10;16.30;;;10.45;;
49678;SDS011;35570;48.218;16.326;2023-02-28T03:32:55;15.30;;;10.35;;
49678;SDS011;35570;48.218;16.326;2023-02-28T03:35:38;15.13;;;10.35;;
49678;SDS011;35570;48.218;16.326;2023-02-28T03:38:18;13.25;;;9.93;;
49678;SDS011;35570;48.218;16.326;2023-02-28T03:40:50;14.40;;;10.10;;
49678;SDS011;35570;48.218;16.326;2023-02-28T03:43:23;15.80;;;11.07;;
49678;SDS011;35570;48.218;16.326;2023-02-28T03:45:52;16.13;;;11.55;;
49678;SDS011;35570;48.218;16.326;2023-02-28T03:48:25;17.95;;;11.38;;
49678;SDS011;35570;48.218;16.326;2023-02-28T03:50:57;16.02;;;9.88;;
49678;SDS011;35570;48.218;16.326;2023-02-28T03:53:26;15.07;;;10.80;;
49678;SDS011;35570;48.218;16.326;2023-02-28T03:55:54;16.55;;;11.23;;
49678;SDS011;35570;48.218;16.326;2023-02-28T03:58:33;15.00;;;10.18;;
49678;SDS011;35570;48.218;16.326;2023-02-28T04:01:21;14.63;;;10.43;;
49678;SDS011;35570;48.218;16.326;2023-02-28T04:03:52;15.35;;;10.38;;
49678;SDS011;35570;48.218;16.326;2023-02-28T04:06:19;16.45;;;10.60;;
49678;SDS011;35570;48.218;16.326;2023-02-28T04:08:47;16.73;;;10.52;;
49678;SDS011;35570;48.218;16.326;2023-02-28T04:11:18;15.77;;;11.10;;
49678;SDS011;35570;48.218;16.326;2023-02-28T04:13:51;15.23;;;10.48;;
49678;SDS011;35570;48.218;16.326;2023-02-28T04:16:17;20.30;;;11.07;;
49678;SDS011;35570;48.218;16.326;2023-02-28T04:18:42;16.30;;;10.48;;
49678;SDS011;35570;48.218;16.326;2023-02-28T04:21:08;15.43;;;11.02;;
49678;SDS011;35570;48.218;16.326;2023-02-28T04:23:35;16.98;;;11.40;;
49678;SDS011;35570;48.218;16.326;2023-02-28T04:26:00;16.70;;;12.15;;
49678;SDS011;35570;48.218;16.326;2023-02-28T04:28:26;16.63;;;10.80;;
49678;SDS011;35570;48.218;16.326;2023-02-28T04:31:03;14.07;;;10.05;;
49678;SDS011;35570;48.218;16.326;2023-02-28T04:33:30;16.63;;;10.38;;
49678;SDS011;35570;48.218;16.326;2023-02-28T04:36:07;15.10;;;10.27;;
49678;SDS011;35570;48.218;16.326;2023-02-28T04:38:34;16.05;;;11.27;;
49678;SDS011;35570;48.218;16.326;2023-02-28T04:41:01;16.77;;;10.18;;
49678;SDS011;35570;48.218;16.326;2023-02-28T04:43:28;17.98;;;10.43;;
49678;SDS011;35570;48.218;16.326;2023-02-28T04:45:55;15.27;;;10.30;;
49678;SDS011;35570;48.218;16.326;2023-02-28T04:48:21;14.50;;;10.27;;
49678;SDS011;35570;48.218;16.326;2023-02-28T04:50:48;15.65;;;10.98;;
49678;SDS011;35570;48.218;16.326;2023-02-28T04:53:14;16.52;;;10.68;;
49678;SDS011;35570;48.218;16.326;2023-02-28T04:55:39;16.45;;;10.57;;
49678;SDS011;35570;48.218;16.326;2023-02-28T04:58:05;14.07;;;10.05;;
49678;SDS011;35570;48.218;16.326;2023-02-28T05:00:31;16.52;;;10.90;;
49678;SDS011;35570;48.218;16.326;2023-02-28T05:02:56;16.45;;;10.57;;
49678;SDS011;35570;48.218;16.326;2023-02-28T05:05:22;14.50;;;10.75;;
49678;SDS011;35570;48.218;16.326;2023-02-28T05:07:48;18.45;;;11.35;;
49678;SDS011;35570;48.218;16.326;2023-02-28T05:10:13;18.40;;;10.75;;
49678;SDS011;35570;48.218;16.326;2023-02-28T05:12:39;17.27;;;10.80;;
49678;SDS011;35570;48.218;16.326;2023-02-28T05:15:05;15.23;;;10.00;;
49678;SDS011;35570;48.218;16.326;2023-02-28T05:17:31;15.05;;;10.70;;
49678;SDS011;35570;48.218;16.326;2023-02-28T05:19:56;17.88;;;11.23;;
49678;SDS011;35570;48.218;16.326;2023-02-28T05:22:22;16.77;;;10.98;;
49678;SDS011;35570;48.218;16.326;2023-02-28T05:24:48;14.48;;;10.35;;
49678;SDS011;35570;48.218;16.326;2023-02-28T05:27:13;16.90;;;11.65;;
49678;SDS011;35570;48.218;16.326;2023-02-28T05:29:39;17.80;;;11.35;;
49678;SDS011;35570;48.218;16.326;2023-02-28T05:32:11;17.38;;;11.63;;
49678;SDS011;35570;48.218;16.326;2023-02-28T05:34:38;21.73;;;12.45;;
49678;SDS011;35570;48.218;16.326;2023-02-28T05:37:04;17.40;;;11.65;;
49678;SDS011;35570;48.218;16.326;2023-02-28T05:39:30;16.85;;;12.23;;
49678;SDS011;35570;48.218;16.326;2023-02-28T05:41:56;17.30;;;10.73;;
49678;SDS011;35570;48.218;16.326;2023-02-28T05:44:22;18.45;;;12.07;;
49678;SDS011;35570;48.218;16.326;2023-02-28T05:46:48;18.08;;;12.15;;
49678;SDS011;35570;48.218;16.326;2023-02-28T05:49:14;18.77;;;11.63;;
49678;SDS011;35570;48.218;16.326;2023-02-28T05:51:39;19.25;;;12.77;;
49678;SDS011;35570;48.218;16.326;2023-02-28T05:54:05;19.38;;;11.77;;
49678;SDS011;35570;48.218;16.326;2023-02-28T05:56:31;22.52;;;14.63;;
49678;SDS011;35570;48.218;16.326;2023-02-28T05:58:59;20.65;;;14.00;;
49678;SDS011;35570;48.218;16.326;2023-02-28T06:03:57;20.23;;;11.50;;
49678;SDS011;35570;48.218;16.326;2023-02-28T06:06:27;18.70;;;12.57;;
49678;SDS011;35570;48.218;16.326;2023-02-28T06:08:54;21.20;;;13.10;;
49678;SDS011;35570;48.218;16.326;2023-02-28T06:11:20;24.08;;;13.40;;
49678;SDS011;35570;48.218;16.326;2023-02-28T06:13:46;19.15;;;12.60;;
49678;SDS011;35570;48.218;16.326;2023-02-28T06:16:12;20.05;;;13.23;;
49678;SDS011;35570;48.218;16.326;2023-02-28T06:18:43;16.60;;;12.02;;
49678;SDS011;35570;48.218;16.326;2023-02-28T06:21:08;19.05;;;12.18;;
49678;SDS011;35570;48.218;16.326;2023-02-28T06:23:34;19.88;;;11.98;;
49678;SDS011;35570;48.218;16.326;2023-02-28T06:25:59;16.77;;;11.60;;
49678;SDS011;35570;48.218;16.326;2023-02-28T06:28:25;18.05;;;11.98;;
49678;SDS011;35570;48.218;16.326;2023-02-28T06:30:51;18.58;;;11.50;;
49678;SDS011;35570;48.218;16.326;2023-02-28T06:33:17;20.20;;;12.20;;
49678;SDS011;35570;48.218;16.326;2023-02-28T06:35:44;25.30;;;12.38;;
49678;SDS011;35570;48.218;16.326;2023-02-28T06:38:11;19.83;;;11.20;;
49678;SDS011;35570;48.218;16.326;2023-02-28T06:40:37;16.65;;;12.45;;
49678;SDS011;35570;48.218;16.326;2023-02-28T06:43:02;17.40;;;11.80;;
49678;SDS011;35570;48.218;16.326;2023-02-28T06:45:28;18.55;;;11.77;;
49678;SDS011;35570;48.218;16.326;2023-02-28T06:47:54;18.55;;;12.50;;
49678;SDS011;35570;48.218;16.326;2023-02-28T06:50:20;19.23;;;12.27;;
49678;SDS011;35570;48.218;16.326;2023-02-28T06:52:46;17.88;;;12.18;;
49678;SDS011;35570;48.218;16.326;2023-02-28T06:55:12;20.48;;;12.63;;
49678;SDS011;35570;48.218;16.326;2023-02-28T06:57:38;21.33;;;12.02;;
49678;SDS011;35570;48.218;16.326;2023-02-28T07:00:05;18.77;;;12.20;;
49678;SDS011;35570;48.218;16.326;2023-02-28T07:02:34;19.23;;;12.45;;
49678;SDS011;35570;48.218;16.326;2023-02-28T07:05:01;18.00;;;11.68;;
49678;SDS011;35570;48.218;16.326;2023-02-28T07:07:26;21.65;;;15.45;;
49678;SDS011;35570;48.218;16.326;2023-02-28T07:09:52;22.67;;;14.90;;
49678;SDS011;35570;48.218;16.326;2023-02-28T07:12:17;22.35;;;15.45;;
49678;SDS011;35570;48.218;16.326;2023-02-28T07:14:43;19.55;;;13.15;;
49678;SDS011;35570;48.218;16.326;2023-02-28T07:17:09;18.63;;;12.93;;
49678;SDS011;35570;48.218;16.326;2023-02-28T07:19:37;19.63;;;13.00;;
49678;SDS011;35570;48.218;16.326;2023-02-28T07:22:04;17.60;;;12.80;;
49678;SDS011;35570;48.218;16.326;2023-02-28T07:24:29;18.48;;;12.43;;
49678;SDS011;35570;48.218;16.326;2023-02-28T07:26:55;18.55;;;13.50;;
49678;SDS011;35570;48.218;16.326;2023-02-28T07:29:21;19.52;;;13.95;;
49678;SDS011;35570;48.218;16.326;2023-02-28T07:31:47;19.63;;;12.75;;
49678;SDS011;35570;48.218;16.326;2023-02-28T07:34:15;18.77;;;13.23;;
49678;SDS011;35570;48.218;16.326;2023-02-28T07:36:41;18.80;;;12.77;;
49678;SDS011;35570;48.218;16.326;2023-02-28T07:39:06;19.05;;;12.88;;
49678;SDS011;35570;48.218;16.326;2023-02-28T07:41:34;17.45;;;13.38;;
49678;SDS011;35570;48.218;16.326;2023-02-28T07:44:04;18.48;;;12.23;;
49678;SDS011;35570;48.218;16.326;2023-02-28T07:46:30;18.10;;;12.52;;
49678;SDS011;35570;48.218;16.326;2023-02-28T07:49:00;17.80;;;12.43;;
49678;SDS011;35570;48.218;16.326;2023-02-28T07:51:27;22.25;;;13.23;;
49678;SDS011;35570;48.218;16.326;2023-02-28T07:53:53;19.17;;;13.70;;
49678;SDS011;35570;48.218;16.326;2023-02-28T07:56:19;19.50;;;12.68;;
49678;SDS011;35570;48.218;16.326;2023-02-28T07:58:45;22.85;;;13.20;;
49678;SDS011;35570;48.218;16.326;2023-02-28T08:01:11;20.55;;;12.82;;
49678;SDS011;35570;48.218;16.326;2023-02-28T08:03:37;19.65;;;13.88;;
49678;SDS011;35570;48.218;16.326;2023-02-28T08:06:04;23.45;;;13.30;;
49678;SDS011;35570;48.218;16.326;2023-02-28T08:08:30;18.95;;;12.65;;
49678;SDS011;35570;48.218;16.326;2023-02-28T08:11:00;23.05;;;14.88;;
49678;SDS011;35570;48.218;16.326;2023-02-28T08:13:27;19.63;;;13.73;;
49678;SDS011;35570;48.218;16.326;2023-02-28T08:15:54;23.73;;;14.55;;
49678;SDS011;35570;48.218;16.326;2023-02-28T08:18:21;23.00;;;13.20;;
49678;SDS011;35570;48.218;16.326;2023-02-28T08:20:47;18.73;;;13.90;;
49678;SDS011;35570;48.218;16.326;2023-02-28T08:23:13;18.80;;;14.20;;
49678;SDS011;35570;48.218;16.326;2023-02-28T08:25:39;18.48;;;12.77;;
49678;SDS011;35570;48.218;16.326;2023-02-28T08:28:05;17.75;;;13.32;;
49678;SDS011;35570;48.218;16.326;2023-02-28T08:30:30;18.42;;;13.35;;
49678;SDS011;35570;48.218;16.326;2023-02-28T08:32:56;18.42;;;13.13;;
49678;SDS011;35570;48.218;16.326;2023-02-28T08:35:22;16.92;;;12.73;;
49678;SDS011;35570;48.218;16.326;2023-02-28T08:37:48;16.17;;;11.95;;
49678;SDS011;35570;48.218;16.326;2023-02-28T08:40:14;15.55;;;12.38;;
49678;SDS011;35570;48.218;16.326;2023-02-28T08:42:44;21.10;;;12.60;;
49678;SDS011;35570;48.218;16.326;2023-02-28T08:45:10;17.13;;;12.50;;
49678;SDS011;35570;48.218;16.326;2023-02-28T08:47:36;16.60;;;11.68;;
49678;SDS011;35570;48.218;16.326;2023-02-28T08:50:02;16.10;;;12.00;;
49678;SDS011;35570;48.218;16.326;2023-02-28T08:52:28;19.05;;;12.50;;
49678;SDS011;35570;48.218;16.326;2023-02-28T08:54:54;18.35;;;13.07;;
49678;SDS011;35570;48.218;16.326;2023-02-28T08:57:20;15.90;;;12.32;;
49678;SDS011;35570;48.218;16.326;2023-02-28T08:59:45;16.73;;;12.35;;
49678;SDS011;35570;48.218;16.326;2023-02-28T09:02:14;17.45;;;12.60;;
49678;SDS011;35570;48.218;16.326;2023-02-28T09:04:40;16.17;;;11.95;;
49678;SDS011;35570;48.218;16.326;2023-02-28T09:07:06;18.40;;;13.40;;
49678;SDS011;35570;48.218;16.326;2023-02-28T09:09:32;17.08;;;13.15;;
49678;SDS011;35570;48.218;16.326;2023-02-28T09:11:58;18.70;;;12.40;;
49678;SDS011;35570;48.218;16.326;2023-02-28T09:14:24;18.02;;;13.05;;
49678;SDS011;35570;48.218;16.326;2023-02-28T09:16:49;18.90;;;12.68;;
49678;SDS011;35570;48.218;16.326;2023-02-28T09:19:15;18.02;;;11.35;;
49678;SDS011;35570;48.218;16.326;2023-02-28T09:21:41;15.07;;;11.20;;
49678;SDS011;35570;48.218;16.326;2023-02-28T09:24:07;14.18;;;11.18;;
49678;SDS011;35570;48.218;16.326;2023-02-28T09:26:33;14.80;;;11.30;;
49678;SDS011;35570;48.218;16.326;2023-02-28T09:28:59;13.38;;;10.70;;
49678;SDS011;35570;48.218;16.326;2023-02-28T09:31:26;18.42;;;11.00;;
49678;SDS011;35570;48.218;16.326;2023-02-28T09:33:54;14.00;;;11.85;;
49678;SDS011;35570;48.218;16.326;2023-02-28T09:36:21;18.33;;;12.43;;
49678;SDS011;35570;48.218;16.326;2023-02-28T09:38:48;14.98;;;12.43;;
49678;SDS011;35570;48.218;16.326;2023-02-28T09:41:23;13.88;;;12.38;;
49678;SDS011;35570;48.218;16.326;2023-02-28T09:43:54;15.98;;;12.20;;
49678;SDS011;35570;48.218;16.326;2023-02-28T09:48:50;16.27;;;10.55;;
49678;SDS011;35570;48.218;16.326;2023-02-28T09:54:00;14.25;;;11.65;;
49678;SDS011;35570;48.218;16.326;2023-02-28T09:56:28;14.88;;;12.02;;
49678;SDS011;35570;48.218;16.326;2023-02-28T09:59:01;15.13;;;11.27;;
49678;SDS011;35570;48.218;16.326;2023-02-28T10:10:22;15.27;;;11.90;;
49678;SDS011;35570;48.218;16.326;2023-02-28T10:13:02;13.45;;;11.65;;
49678;SDS011;35570;48.218;16.326;2023-02-28T10:15:31;15.05;;;11.20;;
49678;SDS011;35570;48.218;16.326;2023-02-28T10:18:01;14.52;;;11.70;;
49678;SDS011;35570;48.218;16.326;2023-02-28T10:20:30;16.92;;;12.43;;
49678;SDS011;35570;48.218;16.326;2023-02-28T10:23:02;15.40;;;12.45;;
49678;SDS011;35570;48.218;16.326;2023-02-28T10:25:36;15.38;;;13.07;;
49678;SDS011;35570;48.218;16.326;2023-02-28T10:28:12;15.95;;;12.90;;
49678;SDS011;35570;48.218;16.326;2023-02-28T10:30:41;15.20;;;12.90;;
49678;SDS011;35570;48.218;16.326;2023-02-28T10:33:28;16.83;;;13.35;;
49678;SDS011;35570;48.218;16.326;2023-02-28T10:35:59;15.15;;;12.18;;
49678;SDS011;35570;48.218;16.326;2023-02-28T10:41:03;17.83;;;13.32;;
49678;SDS011;35570;48.218;16.326;2023-02-28T10:43:29;16.00;;;12.38;;
49678;SDS011;35570;48.218;16.326;2023-02-28T10:46:02;21.05;;;13.07;;
49678;SDS011;35570;48.218;16.326;2023-02-28T10:51:03;13.97;;;11.53;;
49678;SDS011;35570;48.218;16.326;2023-02-28T10:53:52;13.23;;;11.23;;
49678;SDS011;35570;48.218;16.326;2023-02-28T10:56:20;16.85;;;11.48;;
49678;SDS011;35570;48.218;16.326;2023-02-28T10:59:22;15.60;;;12.45;;
49678;SDS011;35570;48.218;16.326;2023-02-28T11:01:54;15.63;;;12.65;;
49678;SDS011;35570;48.218;16.326;2023-02-28T11:09:44;17.13;;;11.68;;
49678;SDS011;35570;48.218;16.326;2023-02-28T11:12:19;13.10;;;10.80;;
49678;SDS011;35570;48.218;16.326;2023-02-28T11:14:53;13.32;;;11.38;;
49678;SDS011;35570;48.218;16.326;2023-02-28T11:17:22;15.40;;;11.38;;
49678;SDS011;35570;48.218;16.326;2023-02-28T11:19:53;13.98;;;11.82;;
49678;SDS011;35570;48.218;16.326;2023-02-28T11:22:23;15.98;;;11.68;;
49678;SDS011;35570;48.218;16.326;2023-02-28T11:24:55;13.80;;;11.40;;
49678;SDS011;35570;48.218;16.326;2023-02-28T11:29:55;13.43;;;11.05;;
49678;SDS011;35570;48.218;16.326;2023-02-28T11:32:21;12.13;;;10.48;;
49678;SDS011;35570;48.218;16.326;2023-02-28T11:37:35;12.77;;;10.65;;
49678;SDS011;35570;48.218;16.326;2023-02-28T11:40:02;12.15;;;10.40;;
49678;SDS011;35570;48.218;16.326;2023-02-28T11:45:28;12.25;;;10.70;;
49678;SDS011;35570;48.218;16.326;2023-02-28T11:48:27;16.35;;;10.95;;
49678;SDS011;35570;48.218;16.326;2023-02-28T11:53:57;12.95;;;10.50;;
49678;SDS011;35570;48.218;16.326;2023-02-28T12:17:48;12.25;;;9.75;;
49678;SDS011;35570;48.218;16.326;2023-02-28T12:20:27;9.80;;;8.73;;
49678;SDS011;35570;48.218;16.326;2023-02-28T12:28:24;11.02;;;9.05;;
49678;SDS011;35570;48.218;16.326;2023-02-28T12:30:56;12.45;;;9.00;;
49678;SDS011;35570;48.218;16.326;2023-02-28T12:33:28;10.95;;;8.18;;
49678;SDS011;35570;48.218;16.326;2023-02-28T12:36:01;10.93;;;9.23;;
49678;SDS011;35570;48.218;16.326;2023-02-28T12:38:45;10.55;;;9.10;;
49678;SDS011;35570;48.218;16.326;2023-02-28T12:41:18;9.75;;;8.75;;
49678;SDS011;35570;48.218;16.326;2023-02-28T12:44:09;9.55;;;8.10;;
49678;SDS011;35570;48.218;16.326;2023-02-28T12:46:45;10.15;;;9.15;;
49678;SDS011;35570;48.218;16.326;2023-02-28T12:49:16;12.75;;;8.60;;
49678;SDS011;35570;48.218;16.326;2023-02-28T12:51:47;9.73;;;8.15;;
49678;SDS011;35570;48.218;16.326;2023-02-28T12:56:44;10.23;;;8.65;;
49678;SDS011;35570;48.218;16.326;2023-02-28T12:59:27;11.10;;;8.05;;
49678;SDS011;35570;48.218;16.326;2023-02-28T13:04:55;9.40;;;8.02;;
49678;SDS011;35570;48.218;16.326;2023-02-28T13:10:07;8.57;;;7.78;;
49678;SDS011;35570;48.218;16.326;2023-02-28T13:12:34;10.00;;;7.22;;
49678;SDS011;35570;48.218;16.326;2023-02-28T13:17:37;9.52;;;7.53;;
49678;SDS011;35570;48.218;16.326;2023-02-28T13:20:14;8.27;;;7.18;;
49678;SDS011;35570;48.218;16.326;2023-02-28T13:22:45;11.35;;;7.47;;
49678;SDS011;35570;48.218;16.326;2023-02-28T13:27:56;10.10;;;7.65;;
49678;SDS011;35570;48.218;16.326;2023-02-28T13:33:34;8.20;;;6.68;;
49678;SDS011;35570;48.218;16.326;2023-02-28T13:38:42;8.05;;;7.07;;
49678;SDS011;35570;48.218;16.326;2023-02-28T13:44:39;7.43;;;6.57;;
49678;SDS011;35570;48.218;16.326;2023-02-28T13:49:31;10.27;;;6.97;;
49678;SDS011;35570;48.218;16.326;2023-02-28T13:54:43;10.75;;;6.82;;
49678;SDS011;35570;48.218;16.326;2023-02-28T13:57:30;7.40;;;6.53;;
49678;SDS011;35570;48.218;16.326;2023-02-28T14:05:32;12.13;;;6.65;;
49678;SDS011;35570;48.218;16.326;2023-02-28T14:07:59;8.13;;;6.55;;
49678;SDS011;35570;48.218;16.326;2023-02-28T14:10:37;8.40;;;6.60;;
49678;SDS011;35570;48.218;16.326;2023-02-28T14:16:09;7.68;;;6.70;;
49678;SDS011;35570;48.218;16.326;2023-02-28T14:18:47;12.10;;;7.60;;
49678;SDS011;35570;48.218;16.326;2023-02-28T14:21:29;10.55;;;7.55;;
49678;SDS011;35570;48.218;16.326;2023-02-28T14:24:03;9.52;;;7.15;;
49678;SDS011;35570;48.218;16.326;2023-02-28T14:26:53;9.70;;;7.57;;
49678;SDS011;35570;48.218;16.326;2023-02-28T14:32:02;11.27;;;9.63;;
49678;SDS011;35570;48.218;16.326;2023-02-28T14:37:15;10.30;;;8.65;;
49678;SDS011;35570;48.218;16.326;2023-02-28T14:39:53;11.05;;;8.30;;
49678;SDS011;35570;48.218;16.326;2023-02-28T14:42:28;10.52;;;8.75;;
49678;SDS011;35570;48.218;16.326;2023-02-28T14:44:56;10.10;;;8.25;;
49678;SDS011;35570;48.218;16.326;2023-02-28T14:49:52;9.75;;;7.95;;
49678;SDS011;35570;48.218;16.326;2023-02-28T14:52:20;10.38;;;8.60;;
49678;SDS011;35570;48.218;16.326;2023-02-28T14:54:46;10.65;;;7.97;;
49678;SDS011;35570;48.218;16.326;2023-02-28T14:57:28;9.60;;;8.60;;
49678;SDS011;35570;48.218;16.326;2023-02-28T15:02:37;12.00;;;9.13;;
49678;SDS011;35570;48.218;16.326;2023-02-28T15:07:42;10.77;;;8.35;;
49678;SDS011;35570;48.218;16.326;2023-02-28T15:10:19;10.85;;;8.13;;
49678;SDS011;35570;48.218;16.326;2023-02-28T15:18:56;9.85;;;8.52;;
49678;SDS011;35570;48.218;16.326;2023-02-28T15:21:05;10.60;;;8.40;;
49678;SDS011;35570;48.218;16.326;2023-02-28T15:23:34;11.10;;;9.05;;
49678;SDS011;35570;48.218;16.326;2023-02-28T15:26:02;11.77;;;8.55;;
49678;SDS011;35570;48.218;16.326;2023-02-28T15:28:29;10.25;;;8.55;;
49678;SDS011;35570;48.218;16.326;2023-02-28T15:30:57;12.50;;;9.63;;
49678;SDS011;35570;48.218;16.326;2023-02-28T15:33:25;13.25;;;9.95;;
49678;SDS011;35570;48.218;16.326;2023-02-28T15:38:42;13.77;;;10.57;;
49678;SDS011;35570;48.218;16.326;2023-02-28T15:41:25;12.85;;;8.80;;
49678;SDS011;35570;48.218;16.326;2023-02-28T15:44:13;13.40;;;9.30;;
49678;SDS011;35570;48.218;16.326;2023-02-28T15:49:29;11.88;;;9.40;;
49678;SDS011;35570;48.218;16.326;2023-02-28T15:52:05;10.82;;;8.75;;
49678;SDS011;35570;48.218;16.326;2023-02-28T15:54:34;13.88;;;9.68;;
49678;SDS011;35570;48.218;16.326;2023-02-28T15:57:22;13.20;;;9.50;;
49678;SDS011;35570;48.218;16.326;2023-02-28T15:59:59;11.70;;;9.38;;
49678;SDS011;35570;48.218;16.326;2023-02-28T16:02:33;11.85;;;8.90;;
49678;SDS011;35570;48.218;16.326;2023-02-28T16:07:33;10.55;;;9.45;;
49678;SDS011;35570;48.218;16.326;2023-02-28T16:10:00;13.70;;;10.05;;
49678;SDS011;35570;48.218;16.326;2023-02-28T16:12:30;13.23;;;9.68;;
49678;SDS011;35570;48.218;16.326;2023-02-28T16:14:58;10.38;;;9.13;;
49678;SDS011;35570;48.218;16.326;2023-02-28T16:17:34;11.60;;;8.15;;
49678;SDS011;35570;48.218;16.326;2023-02-28T16:20:18;9.60;;;7.00;;
49678;SDS011;35570;48.218;16.326;2023-02-28T16:22:49;11.85;;;8.32;;
49678;SDS011;35570;48.218;16.326;2023-02-28T16:25:19;9.55;;;7.82;;
49678;SDS011;35570;48.218;16.326;2023-02-28T16:27:48;13.05;;;8.70;;
49678;SDS011;35570;48.218;16.326;2023-02-28T16:30:20;13.15;;;9.18;;
49678;SDS011;35570;48.218;16.326;2023-02-28T16:32:50;9.30;;;8.18;;
49678;SDS011;35570;48.218;16.326;2023-02-28T16:35:17;11.93;;;8.85;;
49678;SDS011;35570;48.218;16.326;2023-02-28T16:37:43;10.65;;;8.75;;
49678;SDS011;35570;48.218;16.326;2023-02-28T16:40:16;15.48;;;9.88;;
49678;SDS011;35570;48.218;16.326;2023-02-28T16:42:45;11.88;;;9.35;;
49678;SDS011;35570;48.218;16.326;2023-02-28T16:45:23;13.60;;;9.65;;
49678;SDS011;35570;48.218;16.326;2023-02-28T16:47:51;16.88;;;10.18;;
49678;SDS011;35570;48.218;16.326;2023-02-28T16:50:19;15.45;;;10.20;;
49678;SDS011;35570;48.218;16.326;2023-02-28T16:52:52;12.02;;;9.57;;
49678;SDS011;35570;48.218;16.326;2023-02-28T16:55:19;12.70;;;8.90;;
49678;SDS011;35570;48.218;16.326;2023-02-28T16:57:48;12.13;;;9.32;;
49678;SDS011;35570;48.218;16.326;2023-02-28T17:00:19;12.25;;;10.00;;
49678;SDS011;35570;48.218;16.326;2023-02-28T17:02:46;12.27;;;9.27;;
49678;SDS011;35570;48.218;16.326;2023-02-28T17:05:12;10.60;;;9.43;;
49678;SDS011;35570;48.218;16.326;2023-02-28T17:07:40;11.70;;;9.40;;
49678;SDS011;35570;48.218;16.326;2023-02-28T17:10:25;11.98;;;10.38;;
49678;SDS011;35570;48.218;16.326;2023-02-28T17:12:51;11.70;;;10.00;;
49678;SDS011;35570;48.218;16.326;2023-02-28T17:15:18;14.70;;;10.68;;
49678;SDS011;35570;48.218;16.326;2023-02-28T17:17:44;14.10;;;10.50;;